Miya Maru No.1 — JD3144 — position and weather

sailwx.info

Track history (hours):
 
Tides and Currents Weather Stations Pressure Air Temp Water Temp Dewpoint Dewpoint Depression Visibility Wind Speed Wind Dir Waves Ship Positions

Miya Maru No.1

Last reported at 2018-Feb-25 10:52 UTC. Time now 2018-Feb-26 02:07 UTC.
Position N 34°27' E 130°54'.

Length 104 m; draft 6.9 m.

Type: Tanker. MMSI: 431002261.

Date/timePositionNaut miles runAvg speedWind from/ knotsBaromVisibWave heightAir tempDewpointWater temp
2018-Feb-25 10:52N 34°27' E 130°54'613.3
2018-Feb-25 10:24N 34°23' E 130°48'613.4
2018-Feb-25 09:59N 34°18' E 130°48'713.6
2018-Feb-25 09:30N 34°11' E 130°49'713.2
2018-Feb-25 09:00N 34°05' E 130°51'613.0
2018-Feb-25 08:30N 33°59' E 130°53'4 8.0
2018-Feb-25 08:01N 33°56' E 130°56'510.6
2018-Feb-25 07:30N 33°58' E 131°01'612.9
2018-Feb-25 07:00N 33°55' E 131°07'713.1
2018-Feb-25 06:31N 33°51' E 131°14'713.2
2018-Feb-25 06:01N 33°50' E 131°22'713.4
2018-Feb-25 05:30N 33°49' E 131°30'713.2
2018-Feb-25 05:00N 33°47' E 131°38'713.3
2018-Feb-25 04:30N 33°46' E 131°46'713.2
2018-Feb-25 03:59N 33°44' E 131°54'1613.1
2018-Feb-25 02:44N 33°43' E 132°13'513.9
2018-Feb-25 02:23N 33°45' E 132°19'813.7
2018-Feb-25 01:49N 33°48' E 132°28'513.9
2018-Feb-25 01:28N 33°50' E 132°33'714.0
2018-Feb-25 01:00N 33°55' E 132°38'713.9
2018-Feb-25 00:31N 33°60' E 132°44'9012.3
2018-Feb-24 17:15N 34°27' E 134°27'313.6
2018-Feb-24 17:00N 34°28' E 134°31'713.8
2018-Feb-24 16:30N 34°31' E 134°39'713.9
2018-Feb-24 16:00N 34°33' E 134°47'713.8
2018-Feb-24 15:30N 34°36' E 134°54'612.4
2018-Feb-24 15:00N 34°37' E 135°02'612.3
2018-Feb-24 14:30N 34°35' E 135°09'713.1
2018-Feb-24 14:00N 34°34' E 135°16'713.2
2018-Feb-24 13:30N 34°33' E 135°25'1 1.9
2018-Feb-24 13:00N 34°33' E 135°26'0 0.0
2018-Feb-24 12:28N 34°33' E 135°26'0 0.0
2018-Feb-24 11:55N 34°33' E 135°26'0 0.0
2018-Feb-24 11:28N 34°33' E 135°26'0 0.0
2018-Feb-24 10:58N 34°33' E 135°26'0 0.0
2018-Feb-24 10:28N 34°33' E 135°26'0 0.0
2018-Feb-24 09:55N 34°33' E 135°26'0 0.0
2018-Feb-24 09:28N 34°33' E 135°26'0 0.0
2018-Feb-24 08:58N 34°33' E 135°26'0 0.0
2018-Feb-24 08:28N 34°33' E 135°26'0 0.0
2018-Feb-24 07:58N 34°33' E 135°26'0 0.0
2018-Feb-24 07:28N 34°33' E 135°26'0 0.0
2018-Feb-24 06:58N 34°33' E 135°26'0 0.0
2018-Feb-24 06:28N 34°33' E 135°26'0 0.0
2018-Feb-24 05:58N 34°33' E 135°26'0 0.0
2018-Feb-24 05:28N 34°33' E 135°26'0 0.0
2018-Feb-24 04:58N 34°33' E 135°26'0 0.0
2018-Feb-24 04:28N 34°33' E 135°26'0 0.1
2018-Feb-24 04:00N 34°33' E 135°26'1 2.4
2018-Feb-24 03:30N 34°33' E 135°24'4 8.2
2018-Feb-24 03:00N 34°33' E 135°19'0 0.3
2018-Feb-24 02:28N 34°32' E 135°19'0 0.0
2018-Feb-24 01:58N 34°32' E 135°19'0 0.0
2018-Feb-24 01:28N 34°32' E 135°19'0 0.0
2018-Feb-24 00:55N 34°32' E 135°19'0 0.0
2018-Feb-24 00:28N 34°33' E 135°19'0 0.2
2018-Feb-23 23:55N 34°33' E 135°19'0 0.1
2018-Feb-23 23:30N 34°33' E 135°19'611.7
2018-Feb-23 23:00N 34°34' E 135°12'713.6
2018-Feb-23 22:30N 34°35' E 135°04'713.4
2018-Feb-23 22:00N 34°36' E 134°56'713.6
2018-Feb-23 21:30N 34°33' E 134°49'713.3
2018-Feb-23 21:01N 34°30' E 134°41'713.3
2018-Feb-23 20:30N 34°28' E 134°34'713.3
2018-Feb-23 20:00N 34°26' E 134°26'713.5
2018-Feb-23 19:30N 34°24' E 134°18'713.3
2018-Feb-23 18:59N 34°25' E 134°10'71 2.3
2018-Feb-22 12:47N 34°05' E 132°48'413.7
2018-Feb-22 12:30N 34°01' E 132°46'713.4
2018-Feb-22 12:00N 33°56' E 132°41'913.4
2018-Feb-22 11:22N 33°50' E 132°34'513.4
2018-Feb-22 11:00N 33°48' E 132°29'913.6
2018-Feb-22 10:19N 33°44' E 132°18'2213.1
2018-Feb-22 08:39N 33°44' E 131°52'314.4
2018-Feb-22 08:28N 33°44' E 131°49'714.5
2018-Feb-22 08:00N 33°46' E 131°41'714.4
2018-Feb-22 07:30N 33°48' E 131°33'714.2
2018-Feb-22 07:00N 33°49' E 131°24'714.3
2018-Feb-22 06:30N 33°50' E 131°16'713.8
2018-Feb-22 06:00N 33°53' E 131°08'713.4
2018-Feb-22 05:30N 33°58' E 131°02'5 9.7
2018-Feb-22 05:00N 33°56' E 130°56'3 6.4
2018-Feb-22 04:30N 33°56' E 130°53'612.0
2018-Feb-22 04:00N 34°02' E 130°52'713.7
2018-Feb-22 03:30N 34°09' E 130°50'714.0
2018-Feb-22 03:00N 34°15' E 130°49'713.7
2018-Feb-22 02:30N 34°22' E 130°47'713.8
2018-Feb-22 02:00N 34°27' E 130°54'  
2018-Feb-17 16:31N 34°27' E 130°54'011.7
2018-Feb-17 16:30N 34°27' E 130°54'713.3
2018-Feb-17 16:00N 34°23' E 130°47'613.1
2018-Feb-17 15:30N 34°17' E 130°49'713.4
2018-Feb-17 15:00N 34°10' E 130°49'612.9
2018-Feb-17 14:30N 34°04' E 130°50'612.2
2018-Feb-17 14:00N 33°58' E 130°53'3 7.0
2018-Feb-17 13:31N 33°56' E 130°56'611.9
2018-Feb-17 13:00N 33°57' E 131°03'713.7
2018-Feb-17 12:30N 33°53' E 131°10'713.4
2018-Feb-17 12:00N 33°51' E 131°18'713.7
2018-Feb-17 11:30N 33°49' E 131°26'713.7
2018-Feb-17 11:00N 33°48' E 131°34'713.5
2018-Feb-17 10:30N 33°47' E 131°42'713.3
2018-Feb-17 09:59N 33°45' E 131°50'3612.3
2018-Feb-17 07:03N 33°50' E 132°33'114.4
2018-Feb-17 07:00N 33°51' E 132°33'914.6
2018-Feb-17 06:22N 33°57' E 132°42'8812.1
2018-Feb-16 23:03N 34°25' E 134°23'213.4
2018-Feb-16 22:52N 34°26' E 134°26'513.1
2018-Feb-16 22:30N 34°28' E 134°31'712.9
2018-Feb-16 22:00N 34°30' E 134°38'612.9
2018-Feb-16 21:30N 34°33' E 134°45'712.9
2018-Feb-16 21:00N 34°35' E 134°53'612.6
2018-Feb-16 20:30N 34°38' E 134°60'510.5
2018-Feb-16 20:00N 34°35' E 135°06'612.4
2018-Feb-16 19:30N 34°35' E 135°13'613.0
2018-Feb-16 19:01N 34°34' E 135°21'4 7.9
2018-Feb-16 18:30N 34°33' E 135°26'0 0.1
2018-Feb-16 18:00N 34°33' E 135°26'0 0.0
2018-Feb-16 17:28N 34°33' E 135°26'0 0.0
2018-Feb-16 16:58N 34°33' E 135°26'0 0.1
2018-Feb-16 16:25N 34°33' E 135°26'0 0.1
2018-Feb-16 15:58N 34°33' E 135°26'0 0.0
2018-Feb-16 15:28N 34°33' E 135°26'0 0.0
2018-Feb-16 14:58N 34°33' E 135°26'0 0.0
2018-Feb-16 14:28N 34°33' E 135°26'0 0.0
2018-Feb-16 13:58N 34°33' E 135°26'0 0.0
2018-Feb-16 13:28N 34°33' E 135°26'0 0.0
2018-Feb-16 12:58N 34°33' E 135°26'0 0.0
2018-Feb-16 12:28N 34°33' E 135°26'0 0.1
2018-Feb-16 11:58N 34°33' E 135°26'0 0.1
2018-Feb-16 11:28N 34°33' E 135°26'0 0.0
2018-Feb-16 10:58N 34°33' E 135°26'0 0.1
2018-Feb-16 10:28N 34°33' E 135°26'0 0.0
2018-Feb-16 09:58N 34°33' E 135°26'0 0.1
2018-Feb-16 09:28N 34°33' E 135°26'0 0.0
2018-Feb-16 08:58N 34°33' E 135°26'0 0.0
2018-Feb-16 08:28N 34°33' E 135°26'0 0.1
2018-Feb-16 07:55N 34°33' E 135°26'0 0.1
2018-Feb-16 07:28N 34°33' E 135°26'0 0.0
2018-Feb-16 06:58N 34°33' E 135°26'0 0.0
2018-Feb-16 06:28N 34°33' E 135°26'0 0.0
2018-Feb-16 05:58N 34°33' E 135°26'0 0.0
2018-Feb-16 05:30N 34°33' E 135°26'0 0.0
2018-Feb-16 05:00N 34°33' E 135°26'0 0.0
2018-Feb-16 04:30N 34°33' E 135°26'0 0.0
2018-Feb-16 04:00N 34°33' E 135°26'0 0.0
2018-Feb-16 03:30N 34°33' E 135°26'1 1.5
2018-Feb-16 03:00N 34°33' E 135°25'3 5.2
2018-Feb-16 02:31N 34°33' E 135°22'1 2.0
2018-Feb-16 02:00N 34°33' E 135°21'1 2.2
2018-Feb-16 01:26N 34°33' E 135°19'0 0.0
2018-Feb-16 00:59N 34°33' E 135°19'0 0.1
2018-Feb-16 00:29N 34°33' E 135°19'0 0.1
2018-Feb-15 23:59N 34°33' E 135°19'0 0.0
2018-Feb-15 23:29N 34°33' E 135°19'0 0.0
2018-Feb-15 22:59N 34°33' E 135°19'0 0.0
2018-Feb-15 22:26N 34°33' E 135°19'0 0.0
2018-Feb-15 21:59N 34°33' E 135°19'0 0.0
2018-Feb-15 21:26N 34°33' E 135°19'0 0.0
2018-Feb-15 20:59N 34°33' E 135°19'0 0.0
2018-Feb-15 20:29N 34°33' E 135°19'0 0.0
2018-Feb-15 19:59N 34°33' E 135°19'0 0.0
2018-Feb-15 19:29N 34°33' E 135°19'0 0.0
2018-Feb-15 18:59N 34°33' E 135°19'0 0.0
2018-Feb-15 18:29N 34°33' E 135°19'1 1.9
2018-Feb-15 18:00N 34°33' E 135°18'713.0
2018-Feb-15 17:30N 34°35' E 135°10'715.0
2018-Feb-15 17:01N 34°37' E 135°02'816.1
2018-Feb-15 16:30N 34°34' E 134°52'714.8
2018-Feb-15 16:00N 34°31' E 134°44'713.8
2018-Feb-15 15:31N 34°29' E 134°36'713.3
2018-Feb-15 15:01N 34°26' E 134°29'713.4
2018-Feb-15 14:30N 34°24' E 134°21'713.7
2018-Feb-15 14:00N 34°24' E 134°13'  
Track history (hours):
 
Tides and Currents Weather Stations Pressure Air Temp Water Temp Dewpoint Dewpoint Depression Visibility Wind Speed Wind Dir Waves Ship Positions

Miya Maru No.1

Last reported at 2018-Feb-25 10:52 UTC. Time now 2018-Feb-26 02:07 UTC.
Position N 34°27' E 130°54'.

Length 104 m; draft 6.9 m.

Type: Tanker. MMSI: 431002261.

Date/timePositionNaut miles runAvg speedWind from/ knotsBaromVisibWave heightAir tempDewpointWater temp
2018-Feb-25 10:52N 34°27' E 130°54'613.3
2018-Feb-25 10:24N 34°23' E 130°48'613.4
2018-Feb-25 09:59N 34°18' E 130°48'713.6
2018-Feb-25 09:30N 34°11' E 130°49'713.2
2018-Feb-25 09:00N 34°05' E 130°51'613.0
2018-Feb-25 08:30N 33°59' E 130°53'4 8.0
2018-Feb-25 08:01N 33°56' E 130°56'510.6
2018-Feb-25 07:30N 33°58' E 131°01'612.9
2018-Feb-25 07:00N 33°55' E 131°07'713.1
2018-Feb-25 06:31N 33°51' E 131°14'713.2
2018-Feb-25 06:01N 33°50' E 131°22'713.4
2018-Feb-25 05:30N 33°49' E 131°30'713.2
2018-Feb-25 05:00N 33°47' E 131°38'713.3
2018-Feb-25 04:30N 33°46' E 131°46'713.2
2018-Feb-25 03:59N 33°44' E 131°54'1613.1
2018-Feb-25 02:44N 33°43' E 132°13'513.9
2018-Feb-25 02:23N 33°45' E 132°19'813.7
2018-Feb-25 01:49N 33°48' E 132°28'513.9
2018-Feb-25 01:28N 33°50' E 132°33'714.0
2018-Feb-25 01:00N 33°55' E 132°38'713.9
2018-Feb-25 00:31N 33°60' E 132°44'9012.3
2018-Feb-24 17:15N 34°27' E 134°27'313.6
2018-Feb-24 17:00N 34°28' E 134°31'713.8
2018-Feb-24 16:30N 34°31' E 134°39'713.9
2018-Feb-24 16:00N 34°33' E 134°47'713.8
2018-Feb-24 15:30N 34°36' E 134°54'612.4
2018-Feb-24 15:00N 34°37' E 135°02'612.3
2018-Feb-24 14:30N 34°35' E 135°09'713.1
2018-Feb-24 14:00N 34°34' E 135°16'713.2
2018-Feb-24 13:30N 34°33' E 135°25'1 1.9
2018-Feb-24 13:00N 34°33' E 135°26'0 0.0
2018-Feb-24 12:28N 34°33' E 135°26'0 0.0
2018-Feb-24 11:55N 34°33' E 135°26'0 0.0
2018-Feb-24 11:28N 34°33' E 135°26'0 0.0
2018-Feb-24 10:58N 34°33' E 135°26'0 0.0
2018-Feb-24 10:28N 34°33' E 135°26'0 0.0
2018-Feb-24 09:55N 34°33' E 135°26'0 0.0
2018-Feb-24 09:28N 34°33' E 135°26'0 0.0
2018-Feb-24 08:58N 34°33' E 135°26'0 0.0
2018-Feb-24 08:28N 34°33' E 135°26'0 0.0
2018-Feb-24 07:58N 34°33' E 135°26'0 0.0
2018-Feb-24 07:28N 34°33' E 135°26'0 0.0
2018-Feb-24 06:58N 34°33' E 135°26'0 0.0
2018-Feb-24 06:28N 34°33' E 135°26'0 0.0
2018-Feb-24 05:58N 34°33' E 135°26'0 0.0
2018-Feb-24 05:28N 34°33' E 135°26'0 0.0
2018-Feb-24 04:58N 34°33' E 135°26'0 0.0
2018-Feb-24 04:28N 34°33' E 135°26'0 0.1
2018-Feb-24 04:00N 34°33' E 135°26'1 2.4
2018-Feb-24 03:30N 34°33' E 135°24'4 8.2
2018-Feb-24 03:00N 34°33' E 135°19'0 0.3
2018-Feb-24 02:28N 34°32' E 135°19'0 0.0
2018-Feb-24 01:58N 34°32' E 135°19'0 0.0
2018-Feb-24 01:28N 34°32' E 135°19'0 0.0
2018-Feb-24 00:55N 34°32' E 135°19'0 0.0
2018-Feb-24 00:28N 34°33' E 135°19'0 0.2
2018-Feb-23 23:55N 34°33' E 135°19'0 0.1
2018-Feb-23 23:30N 34°33' E 135°19'611.7
2018-Feb-23 23:00N 34°34' E 135°12'713.6
2018-Feb-23 22:30N 34°35' E 135°04'713.4
2018-Feb-23 22:00N 34°36' E 134°56'713.6
2018-Feb-23 21:30N 34°33' E 134°49'713.3
2018-Feb-23 21:01N 34°30' E 134°41'713.3
2018-Feb-23 20:30N 34°28' E 134°34'713.3
2018-Feb-23 20:00N 34°26' E 134°26'713.5
2018-Feb-23 19:30N 34°24' E 134°18'713.3
2018-Feb-23 18:59N 34°25' E 134°10'71 2.3
2018-Feb-22 12:47N 34°05' E 132°48'413.7
2018-Feb-22 12:30N 34°01' E 132°46'713.4
2018-Feb-22 12:00N 33°56' E 132°41'913.4
2018-Feb-22 11:22N 33°50' E 132°34'513.4
2018-Feb-22 11:00N 33°48' E 132°29'913.6
2018-Feb-22 10:19N 33°44' E 132°18'2213.1
2018-Feb-22 08:39N 33°44' E 131°52'314.4
2018-Feb-22 08:28N 33°44' E 131°49'714.5
2018-Feb-22 08:00N 33°46' E 131°41'714.4
2018-Feb-22 07:30N 33°48' E 131°33'714.2
2018-Feb-22 07:00N 33°49' E 131°24'714.3
2018-Feb-22 06:30N 33°50' E 131°16'713.8
2018-Feb-22 06:00N 33°53' E 131°08'713.4
2018-Feb-22 05:30N 33°58' E 131°02'5 9.7
2018-Feb-22 05:00N 33°56' E 130°56'3 6.4
2018-Feb-22 04:30N 33°56' E 130°53'612.0
2018-Feb-22 04:00N 34°02' E 130°52'713.7
2018-Feb-22 03:30N 34°09' E 130°50'714.0
2018-Feb-22 03:00N 34°15' E 130°49'713.7
2018-Feb-22 02:30N 34°22' E 130°47'713.8
2018-Feb-22 02:00N 34°27' E 130°54'  
2018-Feb-17 16:31N 34°27' E 130°54'011.7
2018-Feb-17 16:30N 34°27' E 130°54'713.3
2018-Feb-17 16:00N 34°23' E 130°47'613.1
2018-Feb-17 15:30N 34°17' E 130°49'713.4
2018-Feb-17 15:00N 34°10' E 130°49'612.9
2018-Feb-17 14:30N 34°04' E 130°50'612.2
2018-Feb-17 14:00N 33°58' E 130°53'3 7.0
2018-Feb-17 13:31N 33°56' E 130°56'611.9
2018-Feb-17 13:00N 33°57' E 131°03'713.7
2018-Feb-17 12:30N 33°53' E 131°10'713.4
2018-Feb-17 12:00N 33°51' E 131°18'713.7
2018-Feb-17 11:30N 33°49' E 131°26'713.7
2018-Feb-17 11:00N 33°48' E 131°34'713.5
2018-Feb-17 10:30N 33°47' E 131°42'713.3
2018-Feb-17 09:59N 33°45' E 131°50'3612.3
2018-Feb-17 07:03N 33°50' E 132°33'114.4
2018-Feb-17 07:00N 33°51' E 132°33'914.6
2018-Feb-17 06:22N 33°57' E 132°42'8812.1
2018-Feb-16 23:03N 34°25' E 134°23'213.4
2018-Feb-16 22:52N 34°26' E 134°26'513.1
2018-Feb-16 22:30N 34°28' E 134°31'712.9
2018-Feb-16 22:00N 34°30' E 134°38'612.9
2018-Feb-16 21:30N 34°33' E 134°45'712.9
2018-Feb-16 21:00N 34°35' E 134°53'612.6
2018-Feb-16 20:30N 34°38' E 134°60'510.5
2018-Feb-16 20:00N 34°35' E 135°06'612.4
2018-Feb-16 19:30N 34°35' E 135°13'613.0
2018-Feb-16 19:01N 34°34' E 135°21'4 7.9
2018-Feb-16 18:30N 34°33' E 135°26'0 0.1
2018-Feb-16 18:00N 34°33' E 135°26'0 0.0
2018-Feb-16 17:28N 34°33' E 135°26'0 0.0
2018-Feb-16 16:58N 34°33' E 135°26'0 0.1
2018-Feb-16 16:25N 34°33' E 135°26'0 0.1
2018-Feb-16 15:58N 34°33' E 135°26'0 0.0
2018-Feb-16 15:28N 34°33' E 135°26'0 0.0
2018-Feb-16 14:58N 34°33' E 135°26'0 0.0
2018-Feb-16 14:28N 34°33' E 135°26'0 0.0
2018-Feb-16 13:58N 34°33' E 135°26'0 0.0
2018-Feb-16 13:28N 34°33' E 135°26'0 0.0
2018-Feb-16 12:58N 34°33' E 135°26'0 0.0
2018-Feb-16 12:28N 34°33' E 135°26'0 0.1
2018-Feb-16 11:58N 34°33' E 135°26'0 0.1
2018-Feb-16 11:28N 34°33' E 135°26'0 0.0
2018-Feb-16 10:58N 34°33' E 135°26'0 0.1
2018-Feb-16 10:28N 34°33' E 135°26'0 0.0
2018-Feb-16 09:58N 34°33' E 135°26'0 0.1
2018-Feb-16 09:28N 34°33' E 135°26'0 0.0
2018-Feb-16 08:58N 34°33' E 135°26'0 0.0
2018-Feb-16 08:28N 34°33' E 135°26'0 0.1
2018-Feb-16 07:55N 34°33' E 135°26'0 0.1
2018-Feb-16 07:28N 34°33' E 135°26'0 0.0
2018-Feb-16 06:58N 34°33' E 135°26'0 0.0
2018-Feb-16 06:28N 34°33' E 135°26'0 0.0
2018-Feb-16 05:58N 34°33' E 135°26'0 0.0
2018-Feb-16 05:30N 34°33' E 135°26'0 0.0
2018-Feb-16 05:00N 34°33' E 135°26'0 0.0
2018-Feb-16 04:30N 34°33' E 135°26'0 0.0
2018-Feb-16 04:00N 34°33' E 135°26'0 0.0
2018-Feb-16 03:30N 34°33' E 135°26'1 1.5
2018-Feb-16 03:00N 34°33' E 135°25'3 5.2
2018-Feb-16 02:31N 34°33' E 135°22'1 2.0
2018-Feb-16 02:00N 34°33' E 135°21'1 2.2
2018-Feb-16 01:26N 34°33' E 135°19'0 0.0
2018-Feb-16 00:59N 34°33' E 135°19'0 0.1
2018-Feb-16 00:29N 34°33' E 135°19'0 0.1
2018-Feb-15 23:59N 34°33' E 135°19'0 0.0
2018-Feb-15 23:29N 34°33' E 135°19'0 0.0
2018-Feb-15 22:59N 34°33' E 135°19'0 0.0
2018-Feb-15 22:26N 34°33' E 135°19'0 0.0
2018-Feb-15 21:59N 34°33' E 135°19'0 0.0
2018-Feb-15 21:26N 34°33' E 135°19'0 0.0
2018-Feb-15 20:59N 34°33' E 135°19'0 0.0
2018-Feb-15 20:29N 34°33' E 135°19'0 0.0
2018-Feb-15 19:59N 34°33' E 135°19'0 0.0
2018-Feb-15 19:29N 34°33' E 135°19'0 0.0
2018-Feb-15 18:59N 34°33' E 135°19'0 0.0
2018-Feb-15 18:29N 34°33' E 135°19'1 1.9
2018-Feb-15 18:00N 34°33' E 135°18'713.0
2018-Feb-15 17:30N 34°35' E 135°10'715.0
2018-Feb-15 17:01N 34°37' E 135°02'816.1
2018-Feb-15 16:30N 34°34' E 134°52'714.8
2018-Feb-15 16:00N 34°31' E 134°44'713.8
2018-Feb-15 15:31N 34°29' E 134°36'713.3
2018-Feb-15 15:01N 34°26' E 134°29'713.4
2018-Feb-15 14:30N 34°24' E 134°21'713.7
2018-Feb-15 14:00N 34°24' E 134°13'  

Dump ship's entire track history